sensor_id;sensor_type;location;lat;lon;timestamp;P1;durP1;ratioP1;P2;durP2;ratioP2
20095;SDS011;10207;50.942;6.900;2023-07-02T00:00:24;5.53;;;2.40;;
20095;SDS011;10207;50.942;6.900;2023-07-02T00:02:51;10.18;;;3.25;;
20095;SDS011;10207;50.942;6.900;2023-07-02T00:05:17;9.45;;;3.03;;
20095;SDS011;10207;50.942;6.900;2023-07-02T00:07:43;6.53;;;3.58;;
20095;SDS011;10207;50.942;6.900;2023-07-02T00:10:09;10.13;;;2.80;;
20095;SDS011;10207;50.942;6.900;2023-07-02T00:12:36;7.72;;;2.72;;
20095;SDS011;10207;50.942;6.900;2023-07-02T00:15:02;8.98;;;2.63;;
20095;SDS011;10207;50.942;6.900;2023-07-02T00:17:30;13.23;;;2.88;;
20095;SDS011;10207;50.942;6.900;2023-07-02T00:19:56;6.57;;;3.03;;
20095;SDS011;10207;50.942;6.900;2023-07-02T00:22:22;9.85;;;3.03;;
20095;SDS011;10207;50.942;6.900;2023-07-02T00:24:48;7.32;;;3.13;;
20095;SDS011;10207;50.942;6.900;2023-07-02T00:27:14;7.32;;;3.15;;
20095;SDS011;10207;50.942;6.900;2023-07-02T00:29:40;7.05;;;3.15;;
20095;SDS011;10207;50.942;6.900;2023-07-02T00:32:06;8.60;;;3.33;;
20095;SDS011;10207;50.942;6.900;2023-07-02T00:34:31;9.20;;;3.10;;
20095;SDS011;10207;50.942;6.900;2023-07-02T00:36:57;8.20;;;3.58;;
20095;SDS011;10207;50.942;6.900;2023-07-02T00:39:24;9.48;;;3.00;;
20095;SDS011;10207;50.942;6.900;2023-07-02T00:41:50;8.48;;;2.85;;
20095;SDS011;10207;50.942;6.900;2023-07-02T00:44:16;6.82;;;3.20;;
20095;SDS011;10207;50.942;6.900;2023-07-02T00:46:43;7.28;;;3.00;;
20095;SDS011;10207;50.942;6.900;2023-07-02T00:49:09;9.90;;;3.05;;
20095;SDS011;10207;50.942;6.900;2023-07-02T00:51:35;5.68;;;2.85;;
20095;SDS011;10207;50.942;6.900;2023-07-02T00:54:03;10.63;;;3.30;;
20095;SDS011;10207;50.942;6.900;2023-07-02T00:56:29;8.38;;;3.25;;
20095;SDS011;10207;50.942;6.900;2023-07-02T00:58:55;7.28;;;3.05;;
20095;SDS011;10207;50.942;6.900;2023-07-02T01:01:24;7.97;;;3.33;;
20095;SDS011;10207;50.942;6.900;2023-07-02T01:03:56;7.57;;;3.42;;
20095;SDS011;10207;50.942;6.900;2023-07-02T01:06:25;8.27;;;3.05;;
20095;SDS011;10207;50.942;6.900;2023-07-02T01:08:52;10.63;;;3.90;;
20095;SDS011;10207;50.942;6.900;2023-07-02T01:11:18;8.35;;;4.35;;
20095;SDS011;10207;50.942;6.900;2023-07-02T01:13:45;11.88;;;4.00;;
20095;SDS011;10207;50.942;6.900;2023-07-02T01:16:12;9.38;;;3.95;;
20095;SDS011;10207;50.942;6.900;2023-07-02T01:18:38;8.85;;;3.88;;
20095;SDS011;10207;50.942;6.900;2023-07-02T01:21:05;10.05;;;4.07;;
20095;SDS011;10207;50.942;6.900;2023-07-02T01:23:32;9.65;;;3.97;;
20095;SDS011;10207;50.942;6.900;2023-07-02T01:25:58;11.57;;;4.32;;
20095;SDS011;10207;50.942;6.900;2023-07-02T01:28:25;11.45;;;4.50;;
20095;SDS011;10207;50.942;6.900;2023-07-02T01:30:51;14.90;;;5.40;;
20095;SDS011;10207;50.942;6.900;2023-07-02T01:33:17;14.23;;;5.30;;
20095;SDS011;10207;50.942;6.900;2023-07-02T01:35:44;10.27;;;5.15;;
20095;SDS011;10207;50.942;6.900;2023-07-02T01:38:10;13.63;;;6.13;;
20095;SDS011;10207;50.942;6.900;2023-07-02T01:40:37;13.23;;;5.88;;
20095;SDS011;10207;50.942;6.900;2023-07-02T01:43:03;22.15;;;6.20;;
20095;SDS011;10207;50.942;6.900;2023-07-02T01:45:28;13.30;;;5.97;;
20095;SDS011;10207;50.942;6.900;2023-07-02T01:47:54;10.32;;;5.57;;
20095;SDS011;10207;50.942;6.900;2023-07-02T01:50:20;12.82;;;5.68;;
20095;SDS011;10207;50.942;6.900;2023-07-02T01:52:46;16.60;;;6.15;;
20095;SDS011;10207;50.942;6.900;2023-07-02T01:55:13;14.52;;;5.93;;
20095;SDS011;10207;50.942;6.900;2023-07-02T01:57:38;11.77;;;6.65;;
20095;SDS011;10207;50.942;6.900;2023-07-02T02:00:05;11.55;;;6.53;;
20095;SDS011;10207;50.942;6.900;2023-07-02T02:02:42;13.82;;;7.30;;
20095;SDS011;10207;50.942;6.900;2023-07-02T02:05:08;14.05;;;7.28;;
20095;SDS011;10207;50.942;6.900;2023-07-02T02:07:38;16.08;;;6.93;;
20095;SDS011;10207;50.942;6.900;2023-07-02T02:10:04;15.85;;;6.80;;
20095;SDS011;10207;50.942;6.900;2023-07-02T02:12:30;13.30;;;7.57;;
20095;SDS011;10207;50.942;6.900;2023-07-02T02:14:56;16.33;;;7.35;;
20095;SDS011;10207;50.942;6.900;2023-07-02T02:17:23;14.70;;;6.75;;
20095;SDS011;10207;50.942;6.900;2023-07-02T02:19:51;17.38;;;6.85;;
20095;SDS011;10207;50.942;6.900;2023-07-02T02:22:17;16.48;;;7.10;;
20095;SDS011;10207;50.942;6.900;2023-07-02T02:24:43;17.08;;;8.10;;
20095;SDS011;10207;50.942;6.900;2023-07-02T02:27:09;15.18;;;7.65;;
20095;SDS011;10207;50.942;6.900;2023-07-02T02:29:35;18.52;;;7.35;;
20095;SDS011;10207;50.942;6.900;2023-07-02T02:32:01;22.13;;;8.50;;
20095;SDS011;10207;50.942;6.900;2023-07-02T02:34:27;15.75;;;8.50;;
20095;SDS011;10207;50.942;6.900;2023-07-02T02:36:54;20.80;;;8.55;;
20095;SDS011;10207;50.942;6.900;2023-07-02T02:39:21;17.73;;;7.88;;
20095;SDS011;10207;50.942;6.900;2023-07-02T02:41:48;17.42;;;7.35;;
20095;SDS011;10207;50.942;6.900;2023-07-02T02:44:18;18.65;;;9.10;;
20095;SDS011;10207;50.942;6.900;2023-07-02T02:46:44;15.18;;;8.65;;
20095;SDS011;10207;50.942;6.900;2023-07-02T02:49:10;19.25;;;8.85;;
20095;SDS011;10207;50.942;6.900;2023-07-02T02:51:36;15.75;;;8.40;;
20095;SDS011;10207;50.942;6.900;2023-07-02T02:54:02;17.90;;;8.52;;
20095;SDS011;10207;50.942;6.900;2023-07-02T02:56:28;15.93;;;8.20;;
20095;SDS011;10207;50.942;6.900;2023-07-02T02:58:54;17.83;;;8.50;;
20095;SDS011;10207;50.942;6.900;2023-07-02T03:01:20;25.05;;;9.30;;
20095;SDS011;10207;50.942;6.900;2023-07-02T03:03:46;19.15;;;9.77;;
20095;SDS011;10207;50.942;6.900;2023-07-02T03:06:12;17.33;;;8.88;;
20095;SDS011;10207;50.942;6.900;2023-07-02T03:08:39;17.13;;;8.70;;
20095;SDS011;10207;50.942;6.900;2023-07-02T03:11:05;19.67;;;9.23;;
20095;SDS011;10207;50.942;6.900;2023-07-02T03:13:31;19.13;;;8.75;;
20095;SDS011;10207;50.942;6.900;2023-07-02T03:15:57;18.75;;;9.15;;
20095;SDS011;10207;50.942;6.900;2023-07-02T03:18:23;24.30;;;9.45;;
20095;SDS011;10207;50.942;6.900;2023-07-02T03:20:48;20.73;;;10.00;;
20095;SDS011;10207;50.942;6.900;2023-07-02T03:23:14;20.40;;;10.13;;
20095;SDS011;10207;50.942;6.900;2023-07-02T03:25:40;18.35;;;10.00;;
20095;SDS011;10207;50.942;6.900;2023-07-02T03:28:06;20.17;;;10.70;;
20095;SDS011;10207;50.942;6.900;2023-07-02T03:30:32;20.10;;;10.60;;
20095;SDS011;10207;50.942;6.900;2023-07-02T03:32:58;19.63;;;9.70;;
20095;SDS011;10207;50.942;6.900;2023-07-02T03:35:24;19.70;;;10.38;;
20095;SDS011;10207;50.942;6.900;2023-07-02T03:37:50;22.70;;;10.85;;
20095;SDS011;10207;50.942;6.900;2023-07-02T03:40:16;18.95;;;10.25;;
20095;SDS011;10207;50.942;6.900;2023-07-02T03:42:43;18.90;;;9.57;;
20095;SDS011;10207;50.942;6.900;2023-07-02T03:45:09;21.08;;;9.68;;
20095;SDS011;10207;50.942;6.900;2023-07-02T03:47:35;22.55;;;11.48;;
20095;SDS011;10207;50.942;6.900;2023-07-02T03:50:01;19.17;;;10.55;;
20095;SDS011;10207;50.942;6.900;2023-07-02T03:52:27;24.05;;;9.95;;
20095;SDS011;10207;50.942;6.900;2023-07-02T03:54:53;23.58;;;11.63;;
20095;SDS011;10207;50.942;6.900;2023-07-02T03:57:19;21.10;;;9.93;;
20095;SDS011;10207;50.942;6.900;2023-07-02T03:59:45;20.65;;;10.63;;
20095;SDS011;10207;50.942;6.900;2023-07-02T04:02:11;25.60;;;10.90;;
20095;SDS011;10207;50.942;6.900;2023-07-02T04:04:37;24.27;;;11.15;;
20095;SDS011;10207;50.942;6.900;2023-07-02T04:07:03;24.02;;;11.57;;
20095;SDS011;10207;50.942;6.900;2023-07-02T04:09:29;27.48;;;12.13;;
20095;SDS011;10207;50.942;6.900;2023-07-02T04:11:57;21.27;;;11.63;;
20095;SDS011;10207;50.942;6.900;2023-07-02T04:14:23;21.48;;;10.93;;
20095;SDS011;10207;50.942;6.900;2023-07-02T04:16:49;22.15;;;11.98;;
20095;SDS011;10207;50.942;6.900;2023-07-02T04:19:15;22.02;;;11.07;;
20095;SDS011;10207;50.942;6.900;2023-07-02T04:21:41;22.42;;;12.00;;
20095;SDS011;10207;50.942;6.900;2023-07-02T04:24:07;21.60;;;12.27;;
20095;SDS011;10207;50.942;6.900;2023-07-02T04:26:33;26.15;;;12.40;;
20095;SDS011;10207;50.942;6.900;2023-07-02T04:28:58;26.45;;;12.88;;
20095;SDS011;10207;50.942;6.900;2023-07-02T04:31:24;25.58;;;12.65;;
20095;SDS011;10207;50.942;6.900;2023-07-02T04:33:51;23.00;;;11.85;;
20095;SDS011;10207;50.942;6.900;2023-07-02T04:36:16;23.80;;;11.75;;
20095;SDS011;10207;50.942;6.900;2023-07-02T04:38:42;27.58;;;13.85;;
20095;SDS011;10207;50.942;6.900;2023-07-02T04:41:08;29.85;;;14.25;;
20095;SDS011;10207;50.942;6.900;2023-07-02T04:43:36;26.83;;;13.70;;
20095;SDS011;10207;50.942;6.900;2023-07-02T04:46:01;22.55;;;11.98;;
20095;SDS011;10207;50.942;6.900;2023-07-02T04:48:28;28.40;;;13.20;;
20095;SDS011;10207;50.942;6.900;2023-07-02T04:50:54;31.92;;;13.43;;
20095;SDS011;10207;50.942;6.900;2023-07-02T04:53:20;25.75;;;13.07;;
20095;SDS011;10207;50.942;6.900;2023-07-02T04:55:46;25.67;;;13.15;;
20095;SDS011;10207;50.942;6.900;2023-07-02T04:58:11;25.88;;;14.13;;
20095;SDS011;10207;50.942;6.900;2023-07-02T05:00:37;28.08;;;13.77;;
20095;SDS011;10207;50.942;6.900;2023-07-02T05:03:03;28.55;;;14.30;;
20095;SDS011;10207;50.942;6.900;2023-07-02T05:05:29;28.83;;;14.32;;
20095;SDS011;10207;50.942;6.900;2023-07-02T05:07:56;33.25;;;14.50;;
20095;SDS011;10207;50.942;6.900;2023-07-02T05:10:21;31.50;;;14.73;;
20095;SDS011;10207;50.942;6.900;2023-07-02T05:12:47;26.90;;;13.52;;
20095;SDS011;10207;50.942;6.900;2023-07-02T05:15:13;31.13;;;13.77;;
20095;SDS011;10207;50.942;6.900;2023-07-02T05:17:39;37.17;;;14.80;;
20095;SDS011;10207;50.942;6.900;2023-07-02T05:20:05;41.35;;;15.43;;
20095;SDS011;10207;50.942;6.900;2023-07-02T05:22:32;29.70;;;13.90;;
20095;SDS011;10207;50.942;6.900;2023-07-02T05:24:58;32.08;;;15.85;;
20095;SDS011;10207;50.942;6.900;2023-07-02T05:27:24;31.77;;;15.13;;
20095;SDS011;10207;50.942;6.900;2023-07-02T05:29:49;32.75;;;15.48;;
20095;SDS011;10207;50.942;6.900;2023-07-02T05:32:15;33.22;;;15.55;;
20095;SDS011;10207;50.942;6.900;2023-07-02T05:34:41;35.63;;;15.85;;
20095;SDS011;10207;50.942;6.900;2023-07-02T05:37:07;35.67;;;16.35;;
20095;SDS011;10207;50.942;6.900;2023-07-02T05:39:33;33.00;;;16.35;;
20095;SDS011;10207;50.942;6.900;2023-07-02T05:41:59;32.42;;;15.88;;
20095;SDS011;10207;50.942;6.900;2023-07-02T05:44:25;30.08;;;15.20;;
20095;SDS011;10207;50.942;6.900;2023-07-02T05:46:51;31.08;;;15.70;;
20095;SDS011;10207;50.942;6.900;2023-07-02T05:49:17;28.90;;;15.48;;
20095;SDS011;10207;50.942;6.900;2023-07-02T05:51:43;31.70;;;15.00;;
20095;SDS011;10207;50.942;6.900;2023-07-02T05:54:09;31.42;;;15.70;;
20095;SDS011;10207;50.942;6.900;2023-07-02T05:56:35;39.97;;;18.70;;
20095;SDS011;10207;50.942;6.900;2023-07-02T05:59:01;34.38;;;16.48;;
20095;SDS011;10207;50.942;6.900;2023-07-02T06:01:27;32.80;;;15.55;;
20095;SDS011;10207;50.942;6.900;2023-07-02T06:03:53;37.10;;;15.07;;
20095;SDS011;10207;50.942;6.900;2023-07-02T06:06:19;39.38;;;16.95;;
20095;SDS011;10207;50.942;6.900;2023-07-02T06:08:45;33.28;;;16.60;;
20095;SDS011;10207;50.942;6.900;2023-07-02T06:11:11;29.52;;;15.55;;
20095;SDS011;10207;50.942;6.900;2023-07-02T06:13:36;34.53;;;16.90;;
20095;SDS011;10207;50.942;6.900;2023-07-02T06:16:02;32.50;;;16.50;;
20095;SDS011;10207;50.942;6.900;2023-07-02T06:18:28;36.40;;;16.73;;
20095;SDS011;10207;50.942;6.900;2023-07-02T06:20:54;35.20;;;15.25;;
20095;SDS011;10207;50.942;6.900;2023-07-02T06:23:20;29.98;;;16.85;;
20095;SDS011;10207;50.942;6.900;2023-07-02T06:25:46;31.38;;;15.38;;
20095;SDS011;10207;50.942;6.900;2023-07-02T06:28:12;32.33;;;15.18;;
20095;SDS011;10207;50.942;6.900;2023-07-02T06:30:38;32.05;;;15.63;;
20095;SDS011;10207;50.942;6.900;2023-07-02T06:33:04;30.33;;;15.13;;
20095;SDS011;10207;50.942;6.900;2023-07-02T06:35:30;27.50;;;15.07;;
20095;SDS011;10207;50.942;6.900;2023-07-02T06:37:56;31.30;;;14.77;;
20095;SDS011;10207;50.942;6.900;2023-07-02T06:40:22;28.52;;;13.88;;
20095;SDS011;10207;50.942;6.900;2023-07-02T06:42:50;27.60;;;14.35;;
20095;SDS011;10207;50.942;6.900;2023-07-02T06:45:16;36.42;;;14.57;;
20095;SDS011;10207;50.942;6.900;2023-07-02T06:47:42;29.83;;;15.05;;
20095;SDS011;10207;50.942;6.900;2023-07-02T06:50:08;25.85;;;15.35;;
20095;SDS011;10207;50.942;6.900;2023-07-02T06:52:35;29.50;;;14.93;;
20095;SDS011;10207;50.942;6.900;2023-07-02T06:55:02;28.08;;;15.77;;
20095;SDS011;10207;50.942;6.900;2023-07-02T06:57:29;30.45;;;14.77;;
20095;SDS011;10207;50.942;6.900;2023-07-02T06:59:58;33.20;;;14.57;;
20095;SDS011;10207;50.942;6.900;2023-07-02T07:02:25;31.30;;;14.00;;
20095;SDS011;10207;50.942;6.900;2023-07-02T07:04:51;30.20;;;15.80;;
20095;SDS011;10207;50.942;6.900;2023-07-02T07:07:17;38.72;;;16.48;;
20095;SDS011;10207;50.942;6.900;2023-07-02T07:09:43;33.75;;;16.42;;
20095;SDS011;10207;50.942;6.900;2023-07-02T07:12:08;32.13;;;15.38;;
20095;SDS011;10207;50.942;6.900;2023-07-02T07:14:35;34.10;;;16.30;;
20095;SDS011;10207;50.942;6.900;2023-07-02T07:17:00;28.33;;;13.75;;
20095;SDS011;10207;50.942;6.900;2023-07-02T07:19:27;32.83;;;15.27;;
20095;SDS011;10207;50.942;6.900;2023-07-02T07:21:53;29.98;;;13.88;;
20095;SDS011;10207;50.942;6.900;2023-07-02T07:24:19;24.83;;;13.10;;
20095;SDS011;10207;50.942;6.900;2023-07-02T07:26:45;27.10;;;14.43;;
20095;SDS011;10207;50.942;6.900;2023-07-02T07:29:11;29.95;;;13.38;;
20095;SDS011;10207;50.942;6.900;2023-07-02T07:31:37;30.00;;;13.95;;
20095;SDS011;10207;50.942;6.900;2023-07-02T07:34:03;29.77;;;13.38;;
20095;SDS011;10207;50.942;6.900;2023-07-02T07:36:29;27.02;;;13.52;;
20095;SDS011;10207;50.942;6.900;2023-07-02T07:38:55;28.20;;;13.45;;
20095;SDS011;10207;50.942;6.900;2023-07-02T07:41:21;26.92;;;12.25;;
20095;SDS011;10207;50.942;6.900;2023-07-02T07:43:47;29.60;;;13.93;;
20095;SDS011;10207;50.942;6.900;2023-07-02T07:46:13;24.38;;;12.60;;
20095;SDS011;10207;50.942;6.900;2023-07-02T07:48:39;27.30;;;13.00;;
20095;SDS011;10207;50.942;6.900;2023-07-02T07:51:05;26.67;;;13.25;;
20095;SDS011;10207;50.942;6.900;2023-07-02T07:53:32;32.08;;;13.10;;
20095;SDS011;10207;50.942;6.900;2023-07-02T07:55:58;27.50;;;12.02;;
20095;SDS011;10207;50.942;6.900;2023-07-02T07:58:24;25.58;;;12.43;;
20095;SDS011;10207;50.942;6.900;2023-07-02T08:00:50;27.80;;;11.95;;
20095;SDS011;10207;50.942;6.900;2023-07-02T08:03:16;24.10;;;12.20;;
20095;SDS011;10207;50.942;6.900;2023-07-02T08:05:42;24.00;;;11.18;;
20095;SDS011;10207;50.942;6.900;2023-07-02T08:08:08;27.45;;;14.13;;
20095;SDS011;10207;50.942;6.900;2023-07-02T08:10:34;24.23;;;12.27;;
20095;SDS011;10207;50.942;6.900;2023-07-02T08:13:00;23.88;;;12.25;;
20095;SDS011;10207;50.942;6.900;2023-07-02T08:15:26;23.92;;;11.88;;
20095;SDS011;10207;50.942;6.900;2023-07-02T08:17:52;25.67;;;14.30;;
20095;SDS011;10207;50.942;6.900;2023-07-02T08:20:20;24.50;;;11.82;;
20095;SDS011;10207;50.942;6.900;2023-07-02T08:22:46;24.00;;;11.50;;
20095;SDS011;10207;50.942;6.900;2023-07-02T08:25:12;24.55;;;12.20;;
20095;SDS011;10207;50.942;6.900;2023-07-02T08:27:38;25.58;;;10.68;;
20095;SDS011;10207;50.942;6.900;2023-07-02T08:30:04;30.48;;;12.23;;
20095;SDS011;10207;50.942;6.900;2023-07-02T08:32:30;22.92;;;11.07;;
20095;SDS011;10207;50.942;6.900;2023-07-02T08:34:58;23.00;;;11.60;;
20095;SDS011;10207;50.942;6.900;2023-07-02T08:37:24;26.63;;;10.88;;
20095;SDS011;10207;50.942;6.900;2023-07-02T08:39:50;26.10;;;12.43;;
20095;SDS011;10207;50.942;6.900;2023-07-02T08:42:15;26.52;;;13.13;;
20095;SDS011;10207;50.942;6.900;2023-07-02T08:44:42;25.05;;;11.95;;
20095;SDS011;10207;50.942;6.900;2023-07-02T08:47:11;23.17;;;11.10;;
20095;SDS011;10207;50.942;6.900;2023-07-02T08:49:37;29.83;;;11.45;;
20095;SDS011;10207;50.942;6.900;2023-07-02T08:52:03;24.75;;;10.75;;
20095;SDS011;10207;50.942;6.900;2023-07-02T08:54:29;27.38;;;12.40;;
20095;SDS011;10207;50.942;6.900;2023-07-02T08:56:55;20.60;;;11.90;;
20095;SDS011;10207;50.942;6.900;2023-07-02T08:59:21;28.63;;;12.55;;
20095;SDS011;10207;50.942;6.900;2023-07-02T09:01:51;25.77;;;11.65;;
20095;SDS011;10207;50.942;6.900;2023-07-02T09:04:21;25.13;;;12.02;;
20095;SDS011;10207;50.942;6.900;2023-07-02T09:06:50;25.52;;;11.75;;
20095;SDS011;10207;50.942;6.900;2023-07-02T09:09:17;20.65;;;10.88;;
20095;SDS011;10207;50.942;6.900;2023-07-02T09:11:46;24.20;;;11.63;;
20095;SDS011;10207;50.942;6.900;2023-07-02T09:14:22;23.90;;;12.27;;
20095;SDS011;10207;50.942;6.900;2023-07-02T09:16:48;21.70;;;11.45;;
20095;SDS011;10207;50.942;6.900;2023-07-02T09:19:14;23.23;;;11.75;;
20095;SDS011;10207;50.942;6.900;2023-07-02T09:21:47;26.13;;;11.23;;
20095;SDS011;10207;50.942;6.900;2023-07-02T09:24:14;22.55;;;10.68;;
20095;SDS011;10207;50.942;6.900;2023-07-02T09:26:44;27.02;;;13.18;;
20095;SDS011;10207;50.942;6.900;2023-07-02T09:29:10;24.55;;;11.52;;
20095;SDS011;10207;50.942;6.900;2023-07-02T09:31:42;21.85;;;12.18;;
20095;SDS011;10207;50.942;6.900;2023-07-02T09:34:08;29.52;;;12.07;;
20095;SDS011;10207;50.942;6.900;2023-07-02T09:36:34;23.48;;;11.93;;
20095;SDS011;10207;50.942;6.900;2023-07-02T09:39:18;25.00;;;12.57;;
20095;SDS011;10207;50.942;6.900;2023-07-02T09:41:45;28.92;;;11.55;;
20095;SDS011;10207;50.942;6.900;2023-07-02T09:44:14;26.13;;;12.48;;
20095;SDS011;10207;50.942;6.900;2023-07-02T09:46:41;29.38;;;11.93;;
20095;SDS011;10207;50.942;6.900;2023-07-02T09:49:10;27.25;;;13.15;;
20095;SDS011;10207;50.942;6.900;2023-07-02T09:51:38;25.90;;;12.60;;
20095;SDS011;10207;50.942;6.900;2023-07-02T09:54:04;24.85;;;12.20;;
20095;SDS011;10207;50.942;6.900;2023-07-02T09:56:31;24.83;;;12.57;;
20095;SDS011;10207;50.942;6.900;2023-07-02T09:58:57;27.00;;;13.15;;
20095;SDS011;10207;50.942;6.900;2023-07-02T10:01:22;26.98;;;12.98;;
20095;SDS011;10207;50.942;6.900;2023-07-02T10:03:49;25.02;;;12.73;;
20095;SDS011;10207;50.942;6.900;2023-07-02T10:06:14;24.63;;;12.70;;
20095;SDS011;10207;50.942;6.900;2023-07-02T10:08:40;24.17;;;13.23;;
20095;SDS011;10207;50.942;6.900;2023-07-02T10:11:17;29.20;;;12.82;;
20095;SDS011;10207;50.942;6.900;2023-07-02T10:13:43;27.67;;;12.75;;
20095;SDS011;10207;50.942;6.900;2023-07-02T10:16:09;26.08;;;12.65;;
20095;SDS011;10207;50.942;6.900;2023-07-02T10:18:35;25.67;;;13.07;;
20095;SDS011;10207;50.942;6.900;2023-07-02T10:21:12;25.75;;;12.20;;
20095;SDS011;10207;50.942;6.900;2023-07-02T10:23:38;19.25;;;10.20;;
20095;SDS011;10207;50.942;6.900;2023-07-02T10:26:14;21.92;;;10.82;;
20095;SDS011;10207;50.942;6.900;2023-07-02T10:28:41;23.67;;;10.88;;
20095;SDS011;10207;50.942;6.900;2023-07-02T10:31:20;21.38;;;11.20;;
20095;SDS011;10207;50.942;6.900;2023-07-02T10:33:46;26.27;;;10.60;;
20095;SDS011;10207;50.942;6.900;2023-07-02T10:36:22;24.42;;;11.20;;
20095;SDS011;10207;50.942;6.900;2023-07-02T10:38:49;20.20;;;10.77;;
20095;SDS011;10207;50.942;6.900;2023-07-02T10:41:28;19.98;;;11.13;;
20095;SDS011;10207;50.942;6.900;2023-07-02T10:44:04;24.27;;;10.82;;
20095;SDS011;10207;50.942;6.900;2023-07-02T10:46:30;26.45;;;11.77;;
20095;SDS011;10207;50.942;6.900;2023-07-02T10:48:56;23.95;;;10.90;;
20095;SDS011;10207;50.942;6.900;2023-07-02T10:51:23;24.10;;;11.52;;
20095;SDS011;10207;50.942;6.900;2023-07-02T10:53:56;21.60;;;11.20;;
20095;SDS011;10207;50.942;6.900;2023-07-02T10:56:23;24.55;;;10.20;;
20095;SDS011;10207;50.942;6.900;2023-07-02T10:58:49;23.90;;;12.02;;
20095;SDS011;10207;50.942;6.900;2023-07-02T11:01:24;22.27;;;10.40;;
20095;SDS011;10207;50.942;6.900;2023-07-02T11:04:00;25.50;;;11.82;;
20095;SDS011;10207;50.942;6.900;2023-07-02T11:06:27;20.92;;;10.02;;
20095;SDS011;10207;50.942;6.900;2023-07-02T11:08:53;29.50;;;10.98;;
20095;SDS011;10207;50.942;6.900;2023-07-02T11:11:20;22.73;;;11.32;;
20095;SDS011;10207;50.942;6.900;2023-07-02T11:13:47;28.05;;;11.70;;
20095;SDS011;10207;50.942;6.900;2023-07-02T11:16:17;22.05;;;12.00;;
20095;SDS011;10207;50.942;6.900;2023-07-02T11:18:43;20.17;;;10.75;;
20095;SDS011;10207;50.942;6.900;2023-07-02T11:21:09;21.05;;;10.90;;
20095;SDS011;10207;50.942;6.900;2023-07-02T11:23:35;22.27;;;10.73;;
20095;SDS011;10207;50.942;6.900;2023-07-02T11:26:01;20.00;;;11.57;;
20095;SDS011;10207;50.942;6.900;2023-07-02T11:28:28;22.52;;;9.82;;
20095;SDS011;10207;50.942;6.900;2023-07-02T11:30:55;20.42;;;11.43;;
20095;SDS011;10207;50.942;6.900;2023-07-02T11:33:32;25.35;;;12.30;;
20095;SDS011;10207;50.942;6.900;2023-07-02T11:35:58;21.00;;;11.07;;
20095;SDS011;10207;50.942;6.900;2023-07-02T11:38:23;19.20;;;11.10;;
20095;SDS011;10207;50.942;6.900;2023-07-02T11:40:49;26.75;;;13.05;;
20095;SDS011;10207;50.942;6.900;2023-07-02T11:43:15;26.23;;;12.77;;
20095;SDS011;10207;50.942;6.900;2023-07-02T11:45:42;26.88;;;11.15;;
20095;SDS011;10207;50.942;6.900;2023-07-02T11:48:08;21.13;;;10.02;;
20095;SDS011;10207;50.942;6.900;2023-07-02T11:50:34;23.52;;;11.65;;
20095;SDS011;10207;50.942;6.900;2023-07-02T11:53:00;22.40;;;10.57;;
20095;SDS011;10207;50.942;6.900;2023-07-02T11:55:26;19.17;;;10.07;;
20095;SDS011;10207;50.942;6.900;2023-07-02T11:57:52;21.25;;;9.38;;
20095;SDS011;10207;50.942;6.900;2023-07-02T12:00:18;21.98;;;10.55;;
20095;SDS011;10207;50.942;6.900;2023-07-02T12:02:44;19.70;;;10.70;;
20095;SDS011;10207;50.942;6.900;2023-07-02T12:05:10;18.05;;;9.43;;
20095;SDS011;10207;50.942;6.900;2023-07-02T12:07:36;15.30;;;8.93;;
20095;SDS011;10207;50.942;6.900;2023-07-02T12:10:02;23.33;;;9.93;;
20095;SDS011;10207;50.942;6.900;2023-07-02T12:12:28;20.63;;;9.25;;
20095;SDS011;10207;50.942;6.900;2023-07-02T12:14:54;20.92;;;10.70;;
20095;SDS011;10207;50.942;6.900;2023-07-02T12:17:19;18.80;;;8.90;;
20095;SDS011;10207;50.942;6.900;2023-07-02T12:19:45;15.10;;;7.93;;
20095;SDS011;10207;50.942;6.900;2023-07-02T12:22:11;15.30;;;7.63;;
20095;SDS011;10207;50.942;6.900;2023-07-02T12:24:39;15.93;;;7.80;;
20095;SDS011;10207;50.942;6.900;2023-07-02T12:27:05;14.30;;;6.80;;
20095;SDS011;10207;50.942;6.900;2023-07-02T12:29:31;18.35;;;7.90;;
20095;SDS011;10207;50.942;6.900;2023-07-02T12:31:57;14.23;;;7.45;;
20095;SDS011;10207;50.942;6.900;2023-07-02T12:34:23;18.42;;;7.47;;
20095;SDS011;10207;50.942;6.900;2023-07-02T12:36:49;17.60;;;7.50;;
20095;SDS011;10207;50.942;6.900;2023-07-02T12:39:15;16.60;;;7.43;;
20095;SDS011;10207;50.942;6.900;2023-07-02T12:41:41;16.08;;;6.93;;
20095;SDS011;10207;50.942;6.900;2023-07-02T12:44:06;16.42;;;6.90;;
20095;SDS011;10207;50.942;6.900;2023-07-02T12:46:32;18.92;;;7.40;;
20095;SDS011;10207;50.942;6.900;2023-07-02T12:48:58;15.98;;;7.15;;
20095;SDS011;10207;50.942;6.900;2023-07-02T12:51:24;16.75;;;7.55;;
20095;SDS011;10207;50.942;6.900;2023-07-02T12:53:50;14.55;;;7.65;;
20095;SDS011;10207;50.942;6.900;2023-07-02T12:56:16;17.77;;;7.82;;
20095;SDS011;10207;50.942;6.900;2023-07-02T12:58:42;16.08;;;7.90;;
20095;SDS011;10207;50.942;6.900;2023-07-02T13:01:08;17.38;;;8.38;;
20095;SDS011;10207;50.942;6.900;2023-07-02T13:03:34;16.60;;;7.85;;
20095;SDS011;10207;50.942;6.900;2023-07-02T13:06:00;16.48;;;7.95;;
20095;SDS011;10207;50.942;6.900;2023-07-02T13:08:26;16.88;;;7.55;;
20095;SDS011;10207;50.942;6.900;2023-07-02T13:10:52;14.95;;;7.90;;
20095;SDS011;10207;50.942;6.900;2023-07-02T13:13:18;19.52;;;9.45;;
20095;SDS011;10207;50.942;6.900;2023-07-02T13:15:44;14.57;;;8.20;;
20095;SDS011;10207;50.942;6.900;2023-07-02T13:18:10;21.10;;;9.27;;
20095;SDS011;10207;50.942;6.900;2023-07-02T13:20:36;17.65;;;7.35;;
20095;SDS011;10207;50.942;6.900;2023-07-02T13:23:02;18.48;;;10.05;;
20095;SDS011;10207;50.942;6.900;2023-07-02T13:25:28;19.10;;;9.82;;
20095;SDS011;10207;50.942;6.900;2023-07-02T13:27:54;19.45;;;9.80;;
20095;SDS011;10207;50.942;6.900;2023-07-02T13:30:20;20.98;;;9.27;;
20095;SDS011;10207;50.942;6.900;2023-07-02T13:32:46;18.77;;;9.07;;
20095;SDS011;10207;50.942;6.900;2023-07-02T13:35:12;17.20;;;8.50;;
20095;SDS011;10207;50.942;6.900;2023-07-02T13:37:38;21.75;;;9.65;;
20095;SDS011;10207;50.942;6.900;2023-07-02T13:40:04;19.67;;;9.45;;
20095;SDS011;10207;50.942;6.900;2023-07-02T13:42:32;18.40;;;9.45;;
20095;SDS011;10207;50.942;6.900;2023-07-02T13:44:58;16.15;;;9.05;;
20095;SDS011;10207;50.942;6.900;2023-07-02T13:47:24;16.45;;;8.60;;
20095;SDS011;10207;50.942;6.900;2023-07-02T13:49:50;18.23;;;9.60;;
20095;SDS011;10207;50.942;6.900;2023-07-02T13:52:16;21.15;;;8.93;;
20095;SDS011;10207;50.942;6.900;2023-07-02T13:54:42;17.60;;;8.75;;
20095;SDS011;10207;50.942;6.900;2023-07-02T13:57:08;19.92;;;9.48;;
20095;SDS011;10207;50.942;6.900;2023-07-02T13:59:34;24.00;;;8.73;;
20095;SDS011;10207;50.942;6.900;2023-07-02T14:01:59;17.85;;;8.93;;
20095;SDS011;10207;50.942;6.900;2023-07-02T14:04:25;15.90;;;9.07;;
20095;SDS011;10207;50.942;6.900;2023-07-02T14:06:51;17.85;;;9.50;;
20095;SDS011;10207;50.942;6.900;2023-07-02T14:09:19;19.80;;;9.55;;
20095;SDS011;10207;50.942;6.900;2023-07-02T14:11:45;19.20;;;9.32;;
20095;SDS011;10207;50.942;6.900;2023-07-02T14:14:11;20.30;;;9.13;;
20095;SDS011;10207;50.942;6.900;2023-07-02T14:16:37;20.67;;;10.00;;
20095;SDS011;10207;50.942;6.900;2023-07-02T14:19:04;21.98;;;9.88;;
20095;SDS011;10207;50.942;6.900;2023-07-02T14:21:30;20.80;;;9.85;;
20095;SDS011;10207;50.942;6.900;2023-07-02T14:23:56;21.63;;;10.30;;